createdAt,value
2018-08-09T00:00:22.782Z,19.70
2018-08-09T00:02:51.622Z,19.60
2018-08-09T00:05:20.108Z,19.60
2018-08-09T00:07:48.639Z,19.60
2018-08-09T00:10:17.146Z,19.60
2018-08-09T00:12:45.634Z,19.60
2018-08-09T00:15:14.106Z,19.60
2018-08-09T00:17:43.098Z,19.60
2018-08-09T00:20:12.262Z,19.60
2018-08-09T00:22:40.747Z,19.50
2018-08-09T00:25:09.587Z,19.50
2018-08-09T00:27:38.083Z,19.40
2018-08-09T00:30:07.375Z,19.30
2018-08-09T00:32:35.981Z,19.20
2018-08-09T00:35:04.520Z,19.10
2018-08-09T00:37:33.011Z,19.10
2018-08-09T00:40:01.492Z,19.00
2018-08-09T00:42:30.015Z,19.00
2018-08-09T00:44:58.507Z,18.90
2018-08-09T00:47:27.020Z,19.00
2018-08-09T00:49:55.526Z,19.00
2018-08-09T00:52:24.006Z,19.00
2018-08-09T00:54:52.507Z,19.00
2018-08-09T00:57:21.022Z,19.10
2018-08-09T00:59:49.719Z,19.20
2018-08-09T01:02:18.272Z,19.10
2018-08-09T01:04:46.756Z,19.20
2018-08-09T01:07:15.266Z,19.20
2018-08-09T01:09:43.787Z,19.20
2018-08-09T01:12:12.298Z,19.30
2018-08-09T01:14:40.835Z,19.20
2018-08-09T01:17:09.718Z,19.20
2018-08-09T01:19:38.239Z,19.20
2018-08-09T01:22:07.117Z,19.20
2018-08-09T01:24:35.658Z,19.20
2018-08-09T01:27:08.250Z,19.20
2018-08-09T01:29:38.207Z,19.20
2018-08-09T01:32:06.822Z,19.30
2018-08-09T01:34:35.285Z,19.30
2018-08-09T01:37:04.253Z,19.30
2018-08-09T01:39:32.707Z,19.30
2018-08-09T01:42:12.232Z,19.30
2018-08-09T01:44:41.107Z,19.20
2018-08-09T01:47:09.607Z,19.10
2018-08-09T01:49:38.088Z,19.10
2018-08-09T01:52:06.855Z,19.00
2018-08-09T01:54:35.347Z,18.90
2018-08-09T01:57:03.886Z,18.80
2018-08-09T01:59:32.375Z,18.80
2018-08-09T02:02:01.243Z,18.70
2018-08-09T02:04:29.754Z,18.60
2018-08-09T02:06:58.272Z,18.60
2018-08-09T02:09:32.637Z,18.50
2018-08-09T02:12:02.516Z,18.40
2018-08-09T02:14:32.225Z,18.40
2018-08-09T02:17:01.249Z,18.40
2018-08-09T02:19:30.183Z,18.40
2018-08-09T02:21:58.742Z,18.30
2018-08-09T02:24:27.256Z,18.30
2018-08-09T02:26:55.778Z,18.30
2018-08-09T02:29:24.253Z,18.30
2018-08-09T02:31:52.819Z,18.30
2018-08-09T02:34:21.505Z,18.30
2018-08-09T02:36:50.366Z,18.30
2018-08-09T02:39:18.860Z,18.30
2018-08-09T02:41:47.398Z,18.30
2018-08-09T02:44:15.911Z,18.20
2018-08-09T02:46:44.465Z,18.20
2018-08-09T02:49:23.667Z,18.20
2018-08-09T02:51:52.499Z,18.20
2018-08-09T02:54:22.135Z,18.20
2018-08-09T02:56:50.622Z,18.20
2018-08-09T02:59:19.816Z,18.10
2018-08-09T03:01:48.681Z,18.00
2018-08-09T03:04:17.140Z,18.00
2018-08-09T03:06:45.637Z,18.00
2018-08-09T03:09:14.476Z,18.00
2018-08-09T03:11:43.687Z,17.90
2018-08-09T03:14:12.393Z,18.00
2018-08-09T03:16:40.884Z,17.90
2018-08-09T03:19:09.375Z,17.90
2018-08-09T03:21:37.858Z,17.90
2018-08-09T03:24:06.384Z,17.90
2018-08-09T03:26:34.879Z,17.90
2018-08-09T03:29:03.771Z,17.80
2018-08-09T03:31:32.298Z,17.80
2018-08-09T03:34:00.806Z,17.70
2018-08-09T03:36:29.279Z,17.70
2018-08-09T03:38:57.991Z,17.70
2018-08-09T03:41:26.474Z,17.70
2018-08-09T03:43:54.961Z,17.60
2018-08-09T03:46:23.451Z,17.60
2018-08-09T03:48:51.942Z,17.60
2018-08-09T03:51:20.438Z,17.50
2018-08-09T03:53:48.999Z,17.50
2018-08-09T03:56:17.475Z,17.40
2018-08-09T03:58:45.983Z,17.40
2018-08-09T04:01:14.471Z,17.40
2018-08-09T04:03:42.975Z,17.30
2018-08-09T04:06:11.495Z,17.30
2018-08-09T04:08:39.998Z,17.30
2018-08-09T04:11:08.511Z,17.30
2018-08-09T04:13:36.987Z,17.30
2018-08-09T04:16:05.798Z,17.30
2018-08-09T04:18:34.283Z,17.20
2018-08-09T04:21:02.795Z,17.20
2018-08-09T04:23:31.654Z,17.20
2018-08-09T04:26:00.161Z,17.20
2018-08-09T04:28:28.831Z,17.20
2018-08-09T04:30:57.295Z,17.30
2018-08-09T04:33:25.787Z,17.30
2018-08-09T04:35:54.691Z,17.30
2018-08-09T04:38:23.182Z,17.30
2018-08-09T04:40:51.675Z,17.40
2018-08-09T04:43:20.194Z,17.40
2018-08-09T04:45:48.687Z,17.50
2018-08-09T04:48:17.269Z,17.60
2018-08-09T04:50:45.793Z,17.60
2018-08-09T04:53:14.354Z,17.70
2018-08-09T04:55:42.821Z,17.80
2018-08-09T04:58:11.441Z,17.80
2018-08-09T05:00:40.074Z,17.90
2018-08-09T05:03:08.915Z,17.90
2018-08-09T05:05:37.398Z,18.00
2018-08-09T05:08:05.894Z,18.10
2018-08-09T05:10:34.375Z,18.20
2018-08-09T05:13:02.874Z,18.20
2018-08-09T05:15:31.636Z,18.30
2018-08-09T05:18:00.173Z,18.30
2018-08-09T05:20:29.009Z,18.30
2018-08-09T05:22:57.558Z,18.40
2018-08-09T05:25:26.121Z,18.40
2018-08-09T05:27:54.623Z,18.50
2018-08-09T05:30:23.335Z,18.50
2018-08-09T05:32:51.835Z,18.50
2018-08-09T05:35:21.296Z,18.50
2018-08-09T05:37:49.780Z,18.50
2018-08-09T05:40:18.303Z,18.50
2018-08-09T05:42:46.938Z,18.50
2018-08-09T05:45:15.515Z,18.50
2018-08-09T05:47:44.179Z,18.60
2018-08-09T05:50:12.913Z,18.70
2018-08-09T05:52:41.420Z,18.70
2018-08-09T05:55:10.127Z,18.70
2018-08-09T05:57:38.617Z,18.80
2018-08-09T06:00:08.234Z,19.00
2018-08-09T06:02:36.991Z,19.10
2018-08-09T06:05:05.981Z,19.10
2018-08-09T06:07:34.687Z,19.10
2018-08-09T06:10:03.999Z,19.20
2018-08-09T06:12:33.464Z,19.30
2018-08-09T06:15:01.957Z,19.40
2018-08-09T06:17:30.907Z,19.40
2018-08-09T06:19:59.798Z,19.40
2018-08-09T06:22:28.330Z,19.50
2018-08-09T06:24:57.162Z,19.40
2018-08-09T06:27:25.746Z,19.40
2018-08-09T06:29:54.305Z,19.30
2018-08-09T06:32:22.791Z,19.20
2018-08-09T06:34:51.577Z,19.20
2018-08-09T06:37:20.442Z,19.30
2018-08-09T06:39:48.999Z,19.30
2018-08-09T06:42:17.961Z,19.40
2018-08-09T06:44:46.470Z,19.50
2018-08-09T06:47:16.042Z,19.60
2018-08-09T06:49:44.551Z,19.60
2018-08-09T06:52:13.031Z,19.80
2018-08-09T06:54:41.625Z,19.90
2018-08-09T06:57:10.129Z,20.00
2018-08-09T06:59:38.736Z,20.00
2018-08-09T07:02:07.258Z,19.90
2018-08-09T07:04:35.755Z,19.90
2018-08-09T07:07:04.538Z,19.90
2018-08-09T07:09:33.200Z,19.80
2018-08-09T07:12:01.713Z,19.80
2018-08-09T07:14:30.235Z,19.80
2018-08-09T07:16:58.720Z,19.80
2018-08-09T07:19:27.192Z,19.80
2018-08-09T07:21:56.442Z,19.90
2018-08-09T07:24:25.486Z,19.90
2018-08-09T07:26:54.010Z,20.00
2018-08-09T07:29:22.938Z,20.10
2018-08-09T07:31:51.554Z,20.10
2018-08-09T07:34:21.869Z,20.10
2018-08-09T07:36:50.444Z,20.10
2018-08-09T07:39:19.019Z,20.10
2018-08-09T07:41:47.710Z,20.30
2018-08-09T07:44:16.243Z,20.50
2018-08-09T07:46:44.995Z,20.70
2018-08-09T07:49:13.716Z,20.90
2018-08-09T07:51:42.219Z,21.20
2018-08-09T07:54:10.796Z,21.90
2018-08-09T07:56:39.707Z,22.90
2018-08-09T07:59:08.567Z,24.20
2018-08-09T08:01:37.074Z,24.90
2018-08-09T08:04:06.271Z,24.90
2018-08-09T08:06:34.868Z,24.60
2018-08-09T08:09:03.530Z,24.20
2018-08-09T08:11:32.180Z,23.70
2018-08-09T08:14:00.674Z,23.30
2018-08-09T08:16:29.191Z,23.00
2018-08-09T08:18:58.048Z,22.90
2018-08-09T08:21:26.605Z,22.70
2018-08-09T08:23:55.127Z,22.60
2018-08-09T08:26:24.065Z,22.50
2018-08-09T08:28:52.704Z,22.50
2018-08-09T08:31:23.718Z,22.50
2018-08-09T08:33:52.207Z,22.50
2018-08-09T08:36:20.776Z,22.60
2018-08-09T08:38:49.271Z,22.80
2018-08-09T08:41:17.799Z,23.10
2018-08-09T08:43:46.474Z,23.40
2018-08-09T08:46:15.563Z,23.90
2018-08-09T08:48:44.088Z,24.50
2018-08-09T08:51:12.823Z,24.90
2018-08-09T08:53:41.367Z,25.20
2018-08-09T08:56:09.934Z,25.20
2018-08-09T08:58:39.019Z,25.30
2018-08-09T09:01:07.587Z,25.30
2018-08-09T09:03:36.426Z,25.50
2018-08-09T09:06:05.036Z,25.60
2018-08-09T09:08:33.684Z,25.60
2018-08-09T09:11:03.256Z,25.50
2018-08-09T09:13:31.736Z,25.50
2018-08-09T09:16:00.243Z,25.40
2018-08-09T09:18:28.731Z,25.20
2018-08-09T09:20:57.226Z,25.30
2018-08-09T09:23:25.726Z,25.50
2018-08-09T09:25:54.264Z,25.70
2018-08-09T09:28:22.751Z,25.70
2018-08-09T09:30:51.262Z,25.40
2018-08-09T09:33:19.794Z,25.10
2018-08-09T09:35:48.272Z,24.80
2018-08-09T09:38:16.811Z,24.70
2018-08-09T09:40:45.343Z,24.80
2018-08-09T09:43:13.871Z,24.90
2018-08-09T09:45:42.367Z,25.10
2018-08-09T09:48:10.991Z,25.10
2018-08-09T09:50:39.794Z,25.30
2018-08-09T09:53:08.316Z,25.60
2018-08-09T09:55:36.805Z,26.00
2018-08-09T09:58:05.750Z,26.10
2018-08-09T10:00:39.607Z,26.50
2018-08-09T10:03:08.134Z,26.90
2018-08-09T10:05:36.667Z,27.20
2018-08-09T10:08:05.199Z,27.30
2018-08-09T10:10:33.720Z,27.40
2018-08-09T10:13:02.436Z,27.40
2018-08-09T10:15:30.921Z,27.50
2018-08-09T10:17:59.419Z,27.60
2018-08-09T10:20:28.272Z,27.40
2018-08-09T10:22:56.809Z,27.30
2018-08-09T10:25:25.379Z,27.30
2018-08-09T10:27:53.898Z,27.30
2018-08-09T10:30:22.367Z,27.40
2018-08-09T10:32:50.913Z,27.50
2018-08-09T10:35:19.514Z,27.30
2018-08-09T10:37:48.028Z,27.00
2018-08-09T10:40:16.524Z,26.90
2018-08-09T10:42:45.053Z,27.00
2018-08-09T10:45:14.115Z,27.00
2018-08-09T10:47:42.607Z,27.10
2018-08-09T10:50:11.106Z,27.00
2018-08-09T10:52:39.599Z,27.10
2018-08-09T10:55:08.104Z,27.30
2018-08-09T10:57:36.627Z,27.30
2018-08-09T11:00:07.779Z,27.30
2018-08-09T11:02:36.300Z,27.50
2018-08-09T11:05:05.484Z,27.70
2018-08-09T11:07:34.028Z,27.70
2018-08-09T11:10:02.905Z,27.70
2018-08-09T11:12:31.410Z,27.60
2018-08-09T11:15:00.349Z,27.30
2018-08-09T11:17:29.010Z,27.20
2018-08-09T11:19:57.859Z,27.20
2018-08-09T11:22:26.412Z,27.40
2018-08-09T11:24:54.904Z,27.70
2018-08-09T11:27:23.441Z,27.90
2018-08-09T11:29:51.932Z,28.30
2018-08-09T11:32:20.451Z,28.30
2018-08-09T11:34:48.950Z,28.30
2018-08-09T11:37:17.487Z,28.60
2018-08-09T11:39:46.050Z,28.40
2018-08-09T11:42:14.700Z,28.50
2018-08-09T11:44:43.207Z,28.30
2018-08-09T11:47:11.702Z,28.20
2018-08-09T11:49:40.287Z,28.30
2018-08-09T11:52:08.766Z,28.20
2018-08-09T11:54:37.607Z,28.00
2018-08-09T11:57:06.121Z,28.20
2018-08-09T11:59:34.816Z,28.50
2018-08-09T12:02:03.680Z,28.50
2018-08-09T12:04:32.285Z,28.40
2018-08-09T12:07:00.948Z,28.30
2018-08-09T12:09:29.532Z,28.40
2018-08-09T12:11:58.206Z,28.60
2018-08-09T12:14:26.758Z,28.60
2018-08-09T12:16:55.287Z,28.60
2018-08-09T12:19:23.820Z,28.70
2018-08-09T12:21:52.699Z,28.70
2018-08-09T12:24:21.266Z,28.70
2018-08-09T12:26:50.305Z,28.70
2018-08-09T12:29:18.819Z,28.70
2018-08-09T12:31:47.338Z,28.60
2018-08-09T12:34:16.266Z,28.60
2018-08-09T12:36:44.932Z,28.70
2018-08-09T12:39:13.888Z,28.70
2018-08-09T12:41:42.686Z,28.80
2018-08-09T12:44:11.471Z,29.00
2018-08-09T12:46:40.023Z,29.00
2018-08-09T12:49:08.935Z,29.00
2018-08-09T12:51:37.441Z,28.80
2018-08-09T12:54:05.994Z,28.70
2018-08-09T12:56:34.540Z,28.70
2018-08-09T12:59:03.456Z,28.80
2018-08-09T13:01:31.968Z,28.80
2018-08-09T13:04:00.481Z,28.90
2018-08-09T13:06:29.005Z,28.90
2018-08-09T13:08:57.905Z,28.90
2018-08-09T13:11:26.427Z,29.00
2018-08-09T13:13:55.346Z,28.90
2018-08-09T13:16:23.877Z,28.90
2018-08-09T13:18:52.491Z,28.80
2018-08-09T13:21:21.003Z,28.70
2018-08-09T13:23:50.218Z,28.60
2018-08-09T13:26:18.723Z,28.60
2018-08-09T13:28:47.819Z,28.60
2018-08-09T13:31:16.396Z,28.50
2018-08-09T13:33:45.304Z,28.50
2018-08-09T13:36:14.052Z,28.40
2018-08-09T13:38:42.604Z,28.40
2018-08-09T13:41:11.488Z,28.30
2018-08-09T13:43:39.991Z,28.20
2018-08-09T13:46:08.595Z,28.20
2018-08-09T13:48:37.439Z,28.30
2018-08-09T13:51:06.314Z,28.40
2018-08-09T13:53:35.168Z,28.50
2018-08-09T13:56:03.770Z,28.60
2018-08-09T13:58:32.285Z,28.70
2018-08-09T14:01:01.023Z,28.60
2018-08-09T14:03:30.035Z,28.50
2018-08-09T14:05:58.935Z,28.40
2018-08-09T14:08:27.463Z,28.30
2018-08-09T14:10:56.501Z,28.10
2018-08-09T14:13:25.811Z,27.90
2018-08-09T14:15:55.114Z,27.70
2018-08-09T14:18:24.059Z,27.60
2018-08-09T14:20:52.672Z,27.50
2018-08-09T14:23:21.168Z,27.30
2018-08-09T14:25:49.975Z,26.90
2018-08-09T14:28:18.782Z,26.30
2018-08-09T14:30:48.861Z,25.80
2018-08-09T14:33:17.388Z,25.10
2018-08-09T14:35:46.316Z,24.20
2018-08-09T14:38:15.406Z,23.80
2018-08-09T14:40:44.231Z,23.60
2018-08-09T14:43:13.734Z,23.40
2018-08-09T14:45:42.280Z,23.30
2018-08-09T14:48:10.847Z,23.20
2018-08-09T14:50:39.438Z,23.10
2018-08-09T14:53:08.148Z,23.00
2018-08-09T14:55:36.695Z,23.00
2018-08-09T14:58:05.630Z,22.90
2018-08-09T15:00:34.197Z,22.90
2018-08-09T15:03:03.112Z,22.70
2018-08-09T15:05:31.637Z,22.50
2018-08-09T15:08:00.539Z,22.20
2018-08-09T15:10:29.687Z,22.10
2018-08-09T15:12:58.212Z,21.80
2018-08-09T15:15:26.846Z,21.70
2018-08-09T15:17:55.408Z,21.60
2018-08-09T15:20:24.206Z,21.60
2018-08-09T15:22:52.839Z,21.60
2018-08-09T15:25:21.823Z,21.60
2018-08-09T15:27:50.863Z,21.60
2018-08-09T15:30:20.648Z,21.70
2018-08-09T15:32:49.660Z,21.80
2018-08-09T15:35:18.258Z,21.80
2018-08-09T15:37:46.812Z,21.90
2018-08-09T15:40:29.622Z,21.90
2018-08-09T15:42:58.108Z,21.90
2018-08-09T15:45:26.990Z,22.00
2018-08-09T15:47:56.605Z,21.90
2018-08-09T15:50:25.730Z,22.00
2018-08-09T15:52:54.851Z,22.10
2018-08-09T15:55:23.423Z,22.10
2018-08-09T15:57:52.278Z,22.10
2018-08-09T16:00:22.701Z,22.10
2018-08-09T16:02:51.666Z,22.20
2018-08-09T16:05:20.813Z,22.20
2018-08-09T16:07:49.335Z,22.30
2018-08-09T16:10:18.911Z,22.40
2018-08-09T16:12:48.043Z,22.50
2018-08-09T16:15:17.848Z,22.50
2018-08-09T16:17:47.535Z,22.60
2018-08-09T16:20:16.235Z,22.60
2018-08-09T16:22:47.166Z,22.70
2018-08-09T16:25:18.106Z,22.80
2018-08-09T16:27:47.854Z,22.80
2018-08-09T16:30:20.571Z,22.80
2018-08-09T16:32:49.200Z,22.90
2018-08-09T16:35:18.978Z,23.00
2018-08-09T16:37:48.451Z,23.00
2018-08-09T16:40:22.191Z,23.10
2018-08-09T16:42:50.940Z,23.20
2018-08-09T16:45:20.648Z,23.20
2018-08-09T16:47:50.396Z,23.30
2018-08-09T16:50:21.087Z,23.30
2018-08-09T16:52:50.652Z,23.30
2018-08-09T16:55:20.290Z,23.30
2018-08-09T16:57:48.960Z,23.30
2018-08-09T17:00:20.634Z,23.30
2018-08-09T17:02:49.536Z,23.40
2018-08-09T17:05:21.279Z,23.30
2018-08-09T17:07:50.091Z,23.30
2018-08-09T17:10:20.143Z,23.30
2018-08-09T17:12:48.811Z,23.30
2018-08-09T17:15:20.142Z,23.30
2018-08-09T17:17:48.964Z,23.30
2018-08-09T17:20:19.585Z,23.30
2018-08-09T17:22:48.255Z,23.30
2018-08-09T17:25:16.870Z,23.40
2018-08-09T17:27:46.601Z,23.50
2018-08-09T17:30:16.791Z,23.60
2018-08-09T17:32:45.396Z,23.60
2018-08-09T17:35:15.395Z,23.70
2018-08-09T17:37:44.545Z,23.80
2018-08-09T17:40:17.986Z,23.80
2018-08-09T17:42:47.616Z,23.80
2018-08-09T17:45:16.731Z,23.90
2018-08-09T17:47:46.019Z,23.80
2018-08-09T17:50:14.507Z,23.80
2018-08-09T17:52:43.264Z,23.80
2018-08-09T17:55:13.528Z,23.80
2018-08-09T17:57:43.126Z,23.80
2018-08-09T18:00:29.524Z,23.70
2018-08-09T18:02:58.218Z,23.70
2018-08-09T18:05:26.726Z,23.70
2018-08-09T18:07:55.719Z,23.60
2018-08-09T18:10:26.451Z,23.60
2018-08-09T18:12:55.168Z,23.50
2018-08-09T18:15:24.822Z,23.50
2018-08-09T18:17:54.473Z,23.50
2018-08-09T18:20:26.514Z,23.40
2018-08-09T18:22:55.099Z,23.40
2018-08-09T18:25:23.966Z,23.40
2018-08-09T18:27:52.579Z,23.40
2018-08-09T18:30:21.470Z,23.30
2018-08-09T18:32:50.140Z,23.30
2018-08-09T18:35:19.595Z,23.20
2018-08-09T18:37:49.523Z,23.10
2018-08-09T18:40:21.899Z,23.10
2018-08-09T18:42:50.525Z,23.10
2018-08-09T18:45:19.403Z,23.10
2018-08-09T18:47:47.987Z,23.10
2018-08-09T18:50:19.581Z,23.10
2018-08-09T18:52:48.166Z,23.10
2018-08-09T18:55:17.938Z,23.10
2018-08-09T18:57:46.827Z,23.10
2018-08-09T19:00:17.951Z,23.20
2018-08-09T19:02:47.144Z,23.20
2018-08-09T19:05:16.217Z,23.20
2018-08-09T19:07:45.215Z,23.10
2018-08-09T19:10:20.607Z,23.10
2018-08-09T19:12:49.561Z,23.00
2018-08-09T19:15:18.777Z,22.90
2018-08-09T19:17:48.192Z,22.60
2018-08-09T19:20:22.711Z,22.40
2018-08-09T19:22:51.435Z,22.10
2018-08-09T19:25:57.414Z,21.90
2018-08-09T19:28:26.009Z,21.70
2018-08-09T19:30:54.759Z,21.60
2018-08-09T19:33:23.406Z,21.50
2018-08-09T19:35:52.310Z,21.40
2018-08-09T19:38:21.300Z,21.40
2018-08-09T19:40:49.799Z,21.30
2018-08-09T19:43:18.405Z,21.20
2018-08-09T19:45:47.418Z,21.20
2018-08-09T19:48:15.965Z,21.20
2018-08-09T19:50:45.008Z,21.10
2018-08-09T19:53:13.580Z,21.10
2018-08-09T19:55:42.095Z,21.00
2018-08-09T19:58:10.914Z,20.90
2018-08-09T20:00:39.610Z,20.90
2018-08-09T20:03:08.507Z,20.80
2018-08-09T20:05:37.060Z,20.80
2018-08-09T20:08:05.857Z,20.80
2018-08-09T20:10:34.517Z,20.70
2018-08-09T20:13:03.550Z,20.70
2018-08-09T20:15:32.310Z,20.60
2018-08-09T20:18:00.931Z,20.50
2018-08-09T20:20:29.489Z,20.50
2018-08-09T20:22:58.075Z,20.40
2018-08-09T20:25:27.382Z,20.40
2018-08-09T20:27:55.883Z,20.40
2018-08-09T20:30:24.715Z,20.40
2018-08-09T20:34:18.036Z,20.30
2018-08-09T20:36:46.845Z,20.30
2018-08-09T20:39:15.428Z,20.30
2018-08-09T20:41:44.040Z,20.20
2018-08-09T20:44:12.652Z,20.20
2018-08-09T20:46:41.170Z,20.20
2018-08-09T20:49:09.717Z,20.20
2018-08-09T20:51:39.034Z,20.20
2018-08-09T20:54:08.002Z,20.20
2018-08-09T20:56:37.095Z,20.20
2018-08-09T20:59:05.655Z,20.20
2018-08-09T21:01:34.871Z,20.30
2018-08-09T21:04:04.360Z,20.20
2018-08-09T21:06:33.870Z,20.20
2018-08-09T21:09:02.700Z,20.20
2018-08-09T21:11:31.343Z,20.20
2018-08-09T21:14:00.606Z,20.20
2018-08-09T21:16:29.690Z,20.20
2018-08-09T21:18:58.380Z,20.20
2018-08-09T21:21:27.283Z,20.20
2018-08-09T21:23:58.355Z,20.30
2018-08-09T21:26:27.566Z,20.30
2018-08-09T21:28:56.902Z,20.30
2018-08-09T21:31:25.994Z,20.20
2018-08-09T21:33:55.520Z,20.10
2018-08-09T21:36:24.397Z,20.10
2018-08-09T21:38:52.889Z,20.10
2018-08-09T21:41:21.454Z,20.10
2018-08-09T21:43:50.001Z,20.00
2018-08-09T21:46:18.558Z,20.10
2018-08-09T21:48:47.107Z,20.00
2018-08-09T21:51:15.674Z,20.00
2018-08-09T21:53:44.207Z,20.00
2018-08-09T21:56:12.738Z,20.00
2018-08-09T21:58:41.605Z,20.00
2018-08-09T22:01:10.642Z,20.00
2018-08-09T22:03:39.660Z,19.90
2018-08-09T22:06:13.826Z,19.90
2018-08-09T22:08:47.719Z,19.80
2018-08-09T22:11:21.584Z,19.80
2018-08-09T22:13:56.763Z,19.80
2018-08-09T22:16:30.647Z,19.70
2018-08-09T22:19:04.371Z,19.60
2018-08-09T22:21:38.602Z,19.50
2018-08-09T22:24:08.404Z,19.50
2018-08-09T22:26:37.039Z,19.40
2018-08-09T22:29:05.692Z,19.30
2018-08-09T22:31:34.242Z,19.20
2018-08-09T22:34:03.246Z,19.20
2018-08-09T22:36:32.025Z,19.10
2018-08-09T22:39:00.864Z,19.10
2018-08-09T22:41:29.470Z,19.00
2018-08-09T22:43:58.390Z,18.90
2018-08-09T22:46:27.137Z,18.90
2018-08-09T22:48:55.666Z,18.90
2018-08-09T22:51:24.195Z,18.90
2018-08-09T22:53:52.702Z,18.80
2018-08-09T22:56:21.246Z,18.80
2018-08-09T22:58:49.779Z,18.80
2018-08-09T23:01:18.331Z,18.70
2018-08-09T23:03:47.029Z,18.60
2018-08-09T23:06:15.908Z,18.60
2018-08-09T23:08:44.455Z,18.60
2018-08-09T23:11:12.979Z,18.50
2018-08-09T23:13:41.483Z,18.50
2018-08-09T23:16:10.355Z,18.60
2018-08-09T23:18:39.254Z,18.50
2018-08-09T23:21:07.802Z,18.50
2018-08-09T23:23:36.295Z,18.50
2018-08-09T23:26:04.980Z,18.40
2018-08-09T23:28:33.516Z,18.50
2018-08-09T23:31:02.380Z,18.30
2018-08-09T23:33:30.892Z,18.30
2018-08-09T23:35:59.807Z,18.10
2018-08-09T23:38:28.313Z,18.00
2018-08-09T23:40:56.846Z,18.00
2018-08-09T23:43:25.404Z,18.00
2018-08-09T23:45:53.955Z,18.00
2018-08-09T23:48:22.510Z,17.90
2018-08-09T23:50:51.075Z,17.90
2018-08-09T23:53:19.615Z,17.90
2018-08-09T23:55:48.496Z,17.80
2018-08-09T23:58:17.362Z,17.60
